createdAt,value
2018-06-29T00:01:28.661Z,9.60
2018-06-29T00:03:57.041Z,8.77
2018-06-29T00:06:24.401Z,8.87
2018-06-29T00:08:52.245Z,9.00
2018-06-29T00:11:19.718Z,8.50
2018-06-29T00:13:47.657Z,9.10
2018-06-29T00:16:15.062Z,9.77
2018-06-29T00:18:42.437Z,9.37
2018-06-29T00:21:09.875Z,8.63
2018-06-29T00:23:37.274Z,10.10
2018-06-29T00:26:04.638Z,9.63
2018-06-29T00:28:32.049Z,10.23
2018-06-29T00:30:59.565Z,9.57
2018-06-29T00:33:28.241Z,11.10
2018-06-29T00:35:55.618Z,11.37
2018-06-29T00:38:23.790Z,11.60
2018-06-29T00:40:51.180Z,11.00
2018-06-29T00:43:18.605Z,10.70
2018-06-29T00:45:45.965Z,11.67
2018-06-29T00:48:13.453Z,11.47
2018-06-29T00:50:40.951Z,12.77
2018-06-29T00:53:08.948Z,11.97
2018-06-29T00:55:36.329Z,11.93
2018-06-29T00:58:03.945Z,12.03
2018-06-29T01:00:31.292Z,14.13
2018-06-29T01:02:58.693Z,12.30
2018-06-29T01:05:26.105Z,12.00
2018-06-29T01:07:53.673Z,12.40
2018-06-29T01:10:21.187Z,13.13
2018-06-29T01:12:48.598Z,12.50
2018-06-29T01:15:16.409Z,12.50
2018-06-29T01:17:43.829Z,13.30
2018-06-29T01:20:11.266Z,12.33
2018-06-29T01:22:38.649Z,13.00
2018-06-29T01:25:06.097Z,12.40
2018-06-29T01:27:33.571Z,11.70
2018-06-29T01:30:01.097Z,12.03
2018-06-29T01:32:28.777Z,12.37
2018-06-29T01:34:56.201Z,13.53
2018-06-29T01:37:24.005Z,13.10
2018-06-29T01:39:51.420Z,13.30
2018-06-29T01:42:18.925Z,14.23
2018-06-29T01:44:46.426Z,13.70
2018-06-29T01:47:13.942Z,14.47
2018-06-29T01:49:42.110Z,14.50
2018-06-29T01:52:09.630Z,16.47
2018-06-29T01:54:37.177Z,14.10
2018-06-29T01:57:04.741Z,14.07
2018-06-29T01:59:32.158Z,15.10
2018-06-29T02:01:59.557Z,14.97
2018-06-29T02:04:26.925Z,14.97
2018-06-29T02:06:54.358Z,16.43
2018-06-29T02:09:21.768Z,17.00
2018-06-29T02:11:49.597Z,15.97
2018-06-29T02:14:17.085Z,15.60
2018-06-29T02:16:44.639Z,16.17
2018-06-29T02:19:12.050Z,16.07
2018-06-29T02:21:39.472Z,15.80
2018-06-29T02:24:07.389Z,17.07
2018-06-29T02:26:34.860Z,17.70
2018-06-29T02:29:02.633Z,16.07
2018-06-29T02:31:30.014Z,17.27
2018-06-29T02:33:57.457Z,19.47
2018-06-29T02:36:24.833Z,16.70
2018-06-29T02:38:52.449Z,18.63
2018-06-29T02:41:19.970Z,17.53
2018-06-29T02:43:47.505Z,19.90
2018-06-29T02:46:14.922Z,19.23
2018-06-29T02:48:42.302Z,17.00
2018-06-29T02:51:09.677Z,18.17
2018-06-29T02:53:37.117Z,18.53
2018-06-29T02:56:04.732Z,17.10
2018-06-29T02:58:32.117Z,17.73
2018-06-29T03:00:59.544Z,18.13
2018-06-29T03:03:26.929Z,20.07
2018-06-29T03:05:54.397Z,18.87
2018-06-29T03:08:21.850Z,18.83
2018-06-29T03:10:49.270Z,18.83
2018-06-29T03:13:16.674Z,18.47
2018-06-29T03:15:44.077Z,19.50
2018-06-29T03:18:11.853Z,19.87
2018-06-29T03:20:39.221Z,19.60
2018-06-29T03:23:06.700Z,19.83
2018-06-29T03:25:34.180Z,15.70
2018-06-29T03:28:01.575Z,18.80
2018-06-29T03:30:29.175Z,18.63
2018-06-29T03:32:56.658Z,19.50
2018-06-29T03:35:24.030Z,18.77
2018-06-29T03:37:51.423Z,21.73
2018-06-29T03:40:18.848Z,20.23
2018-06-29T03:42:46.364Z,18.47
2018-06-29T03:45:13.784Z,18.57
2018-06-29T03:47:41.243Z,18.73
2018-06-29T03:50:08.613Z,16.33
2018-06-29T03:52:36.113Z,15.63
2018-06-29T03:55:03.596Z,18.20
2018-06-29T03:57:30.956Z,16.43
2018-06-29T03:59:58.521Z,17.73
2018-06-29T04:02:26.007Z,16.77
2018-06-29T04:04:53.515Z,17.23
2018-06-29T04:07:20.961Z,16.23
2018-06-29T04:09:48.386Z,16.67
2018-06-29T04:12:15.785Z,16.50
2018-06-29T04:14:43.237Z,15.83
2018-06-29T04:17:10.948Z,15.40
2018-06-29T04:19:38.289Z,13.83
2018-06-29T04:22:05.689Z,15.80
2018-06-29T04:24:33.157Z,15.07
2018-06-29T04:27:00.509Z,14.23
2018-06-29T04:29:27.890Z,14.23
2018-06-29T04:31:55.289Z,16.10
2018-06-29T04:34:22.655Z,13.17
2018-06-29T04:36:50.006Z,15.07
2018-06-29T04:39:17.486Z,12.53
2018-06-29T04:41:44.915Z,13.10
2018-06-29T04:44:12.390Z,12.50
2018-06-29T04:46:39.797Z,12.73
2018-06-29T04:49:07.389Z,11.63
2018-06-29T04:51:34.737Z,12.50
2018-06-29T04:54:02.321Z,10.73
2018-06-29T04:56:29.685Z,9.90
2018-06-29T04:58:57.199Z,12.30
2018-06-29T05:01:24.677Z,12.37
2018-06-29T05:03:52.254Z,13.00
2018-06-29T05:06:19.662Z,12.50
2018-06-29T05:08:47.157Z,12.00
2018-06-29T05:11:14.713Z,11.97
2018-06-29T05:13:42.266Z,10.73
2018-06-29T05:16:09.718Z,12.20
2018-06-29T05:18:37.105Z,9.90
2018-06-29T05:21:04.571Z,11.80
2018-06-29T05:23:32.037Z,11.57
2018-06-29T05:25:59.421Z,11.40
2018-06-29T05:28:26.838Z,10.67
2018-06-29T05:30:54.251Z,8.60
2018-06-29T05:33:21.946Z,8.87
2018-06-29T05:35:49.413Z,10.80
2018-06-29T05:38:16.791Z,10.13
2018-06-29T05:40:44.254Z,8.93
2018-06-29T05:43:11.727Z,9.47
2018-06-29T05:45:39.178Z,8.50
2018-06-29T05:48:06.594Z,8.90
2018-06-29T05:50:34.037Z,8.20
2018-06-29T05:53:01.483Z,7.30
2018-06-29T05:55:28.993Z,6.33
2018-06-29T05:57:56.426Z,6.87
2018-06-29T06:00:25.086Z,7.40
2018-06-29T06:02:52.506Z,8.67
2018-06-29T06:05:19.879Z,7.43
2018-06-29T06:07:47.249Z,6.50
2018-06-29T06:10:14.682Z,6.13
2018-06-29T06:12:42.057Z,5.33
2018-06-29T06:15:09.477Z,6.20
2018-06-29T06:17:36.988Z,5.17
2018-06-29T06:20:08.346Z,5.27
2018-06-29T06:22:35.957Z,5.33
2018-06-29T06:25:03.734Z,5.43
2018-06-29T06:27:31.421Z,5.60
2018-06-29T06:29:58.784Z,5.53
2018-06-29T06:32:26.207Z,5.13
2018-06-29T06:34:53.646Z,5.20
2018-06-29T06:37:21.034Z,5.30
2018-06-29T06:39:48.457Z,5.37
2018-06-29T06:42:15.881Z,5.47
2018-06-29T06:44:43.305Z,6.23
2018-06-29T06:47:10.749Z,4.40
2018-06-29T06:49:38.128Z,4.63
2018-06-29T06:52:05.978Z,5.20
2018-06-29T06:54:33.925Z,5.70
2018-06-29T06:57:01.381Z,5.57
2018-06-29T06:59:28.757Z,5.57
2018-06-29T07:01:56.167Z,4.53
2018-06-29T07:04:23.550Z,4.70
2018-06-29T07:06:51.119Z,5.37
2018-06-29T07:09:18.519Z,5.10
2018-06-29T07:11:45.949Z,4.60
2018-06-29T07:14:13.428Z,4.33
2018-06-29T07:16:41.237Z,4.17
2018-06-29T07:19:08.616Z,4.57
2018-06-29T07:21:36.304Z,4.67
2018-06-29T07:24:03.897Z,4.17
2018-06-29T07:26:31.357Z,3.80
2018-06-29T07:28:58.825Z,4.30
2018-06-29T07:31:26.230Z,4.00
2018-06-29T07:33:53.664Z,3.27
2018-06-29T07:36:21.154Z,3.90
2018-06-29T07:38:48.676Z,4.00
2018-06-29T07:41:16.207Z,4.33
2018-06-29T07:43:43.782Z,3.70
2018-06-29T07:46:11.162Z,4.57
2018-06-29T07:48:38.952Z,3.40
2018-06-29T07:51:06.826Z,5.43
2018-06-29T07:53:34.258Z,3.90
2018-06-29T07:56:01.635Z,4.03
2018-06-29T07:58:29.174Z,4.30
2018-06-29T08:01:00.908Z,3.90
2018-06-29T08:03:29.029Z,3.80
2018-06-29T08:05:56.539Z,4.30
2018-06-29T08:08:24.269Z,5.10
2018-06-29T08:10:51.687Z,3.60
2018-06-29T08:13:19.130Z,4.10
2018-06-29T08:15:46.573Z,4.40
2018-06-29T08:18:14.045Z,4.63
2018-06-29T08:20:41.393Z,4.50
2018-06-29T08:23:08.889Z,4.53
2018-06-29T08:25:36.280Z,4.47
2018-06-29T08:28:03.769Z,4.10
2018-06-29T08:30:31.167Z,4.47
2018-06-29T08:32:58.578Z,4.20
2018-06-29T08:35:26.006Z,4.90
2018-06-29T08:37:53.453Z,5.20
2018-06-29T08:40:20.846Z,4.20
2018-06-29T08:42:48.303Z,4.70
2018-06-29T08:45:15.729Z,4.47
2018-06-29T08:47:43.082Z,4.80
2018-06-29T08:50:10.570Z,4.23
2018-06-29T08:52:38.657Z,4.13
2018-06-29T08:55:06.146Z,3.97
2018-06-29T08:57:33.542Z,4.30
2018-06-29T09:00:00.984Z,4.20
2018-06-29T09:02:28.330Z,3.50
2018-06-29T09:04:55.834Z,4.43
2018-06-29T09:07:23.218Z,3.80
2018-06-29T09:09:50.635Z,4.50
2018-06-29T09:12:18.100Z,4.03
2018-06-29T09:14:45.470Z,3.67
2018-06-29T09:17:12.913Z,4.10
2018-06-29T09:19:40.338Z,3.43
2018-06-29T09:22:07.721Z,3.50
2018-06-29T09:24:35.141Z,4.90
2018-06-29T09:27:02.641Z,4.20
2018-06-29T09:29:30.102Z,4.63
2018-06-29T09:31:57.547Z,4.63
2018-06-29T09:34:24.928Z,4.40
2018-06-29T09:36:52.445Z,4.33
2018-06-29T09:39:19.857Z,3.70
2018-06-29T09:41:47.242Z,4.30
2018-06-29T09:44:14.657Z,3.67
2018-06-29T09:46:42.159Z,4.40
2018-06-29T09:49:09.612Z,3.83
2018-06-29T09:51:37.261Z,3.90
2018-06-29T09:54:04.798Z,4.23
2018-06-29T09:56:32.451Z,4.03
2018-06-29T09:58:59.910Z,4.03
2018-06-29T10:01:27.559Z,3.60
2018-06-29T10:03:54.877Z,3.40
2018-06-29T10:06:22.296Z,3.57
2018-06-29T10:08:50.073Z,3.37
2018-06-29T10:11:17.509Z,3.30
2018-06-29T10:13:44.926Z,4.17
2018-06-29T10:16:12.858Z,3.63
2018-06-29T10:18:40.281Z,3.80
2018-06-29T10:21:07.865Z,3.53
2018-06-29T10:23:35.693Z,3.50
2018-06-29T10:26:03.222Z,3.60
2018-06-29T10:28:30.721Z,3.50
2018-06-29T10:30:58.395Z,3.80
2018-06-29T10:33:25.821Z,3.60
2018-06-29T10:35:53.404Z,3.80
2018-06-29T10:38:21.194Z,3.37
2018-06-29T10:40:48.654Z,3.67
2018-06-29T10:43:16.083Z,3.20
2018-06-29T10:45:43.506Z,2.90
2018-06-29T10:48:11.067Z,4.27
2018-06-29T10:50:38.472Z,3.10
2018-06-29T10:53:05.881Z,3.83
2018-06-29T10:55:33.298Z,2.80
2018-06-29T10:58:00.684Z,3.57
2018-06-29T11:00:28.185Z,2.97
2018-06-29T11:02:55.609Z,3.30
2018-06-29T11:05:23.014Z,3.20
2018-06-29T11:07:50.390Z,3.30
2018-06-29T11:10:17.909Z,4.23
2018-06-29T11:12:45.749Z,3.90
2018-06-29T11:15:13.233Z,3.97
2018-06-29T11:17:40.933Z,3.90
2018-06-29T11:20:08.535Z,4.67
2018-06-29T11:22:35.892Z,4.60
2018-06-29T11:25:03.408Z,4.40
2018-06-29T11:27:30.846Z,4.10
2018-06-29T11:29:58.261Z,4.73
2018-06-29T11:32:25.635Z,4.60
2018-06-29T11:34:53.025Z,4.43
2018-06-29T11:37:20.413Z,4.13
2018-06-29T11:39:47.846Z,2.90
2018-06-29T11:42:15.541Z,3.17
2018-06-29T11:44:42.998Z,2.97
2018-06-29T11:47:10.364Z,3.20
2018-06-29T11:49:37.805Z,3.20
2018-06-29T11:52:05.240Z,3.00
2018-06-29T11:54:32.722Z,2.33
2018-06-29T11:57:00.129Z,2.70
2018-06-29T11:59:27.516Z,3.20
2018-06-29T12:01:55.023Z,4.03
2018-06-29T12:04:22.417Z,3.10
2018-06-29T12:06:49.802Z,3.43
2018-06-29T12:09:17.466Z,3.50
2018-06-29T12:11:44.854Z,3.87
2018-06-29T12:14:12.508Z,4.10
2018-06-29T12:16:39.927Z,3.67
2018-06-29T12:19:07.330Z,3.83
2018-06-29T12:21:34.993Z,3.53
2018-06-29T12:24:02.408Z,3.53
2018-06-29T12:26:29.872Z,4.30
2018-06-29T12:28:57.221Z,4.60
2018-06-29T12:31:24.678Z,3.90
2018-06-29T12:33:52.109Z,4.27
2018-06-29T12:36:19.649Z,4.87
2018-06-29T12:38:47.153Z,5.27
2018-06-29T12:41:14.600Z,5.33
2018-06-29T12:43:42.090Z,5.50
2018-06-29T12:46:09.497Z,5.37
2018-06-29T12:48:36.943Z,5.00
2018-06-29T12:51:04.301Z,5.40
2018-06-29T12:53:31.657Z,6.27
2018-06-29T12:55:59.014Z,5.90
2018-06-29T12:58:27.942Z,5.87
2018-06-29T13:00:55.397Z,6.00
2018-06-29T13:03:23.261Z,6.90
2018-06-29T13:05:51.970Z,6.00
2018-06-29T13:08:22.799Z,6.10
2018-06-29T13:10:50.398Z,5.63
2018-06-29T13:13:19.901Z,6.10
2018-06-29T13:15:50.573Z,7.00
2018-06-29T13:18:19.606Z,6.43
2018-06-29T13:20:49.309Z,6.83
2018-06-29T13:23:17.374Z,7.63
2018-06-29T13:25:44.902Z,7.53
2018-06-29T13:28:12.321Z,6.60
2018-06-29T13:30:39.721Z,7.70
2018-06-29T13:33:07.099Z,6.40
2018-06-29T13:35:34.608Z,6.43
2018-06-29T13:38:02.014Z,7.03
2018-06-29T13:40:29.406Z,7.43
2018-06-29T13:42:56.878Z,7.90
2018-06-29T13:45:24.346Z,7.10
2018-06-29T13:47:51.725Z,6.83
2018-06-29T13:50:19.086Z,6.87
2018-06-29T13:52:46.454Z,6.53
2018-06-29T13:55:13.866Z,6.90
2018-06-29T13:57:41.269Z,6.90
2018-06-29T14:00:08.800Z,8.30
2018-06-29T14:02:36.293Z,7.57
2018-06-29T14:05:03.813Z,7.57
2018-06-29T14:07:31.182Z,7.70
2018-06-29T14:09:58.772Z,7.50
2018-06-29T14:12:26.147Z,7.83
2018-06-29T14:14:53.520Z,7.67
2018-06-29T14:17:21.005Z,8.43
2018-06-29T14:19:48.459Z,6.37
2018-06-29T14:22:16.182Z,8.07
2018-06-29T14:24:43.626Z,7.70
2018-06-29T14:27:11.013Z,7.70
2018-06-29T14:29:38.501Z,6.80
2018-06-29T14:32:05.962Z,7.30
2018-06-29T14:34:33.427Z,7.00
2018-06-29T14:37:00.870Z,6.57
2018-06-29T14:39:28.298Z,6.97
2018-06-29T14:41:59.977Z,7.90
2018-06-29T14:44:27.361Z,7.83
2018-06-29T14:46:54.797Z,6.47
2018-06-29T14:49:22.224Z,6.73
2018-06-29T14:51:49.724Z,6.60
2018-06-29T14:54:17.465Z,6.80
2018-06-29T14:56:44.838Z,7.40
2018-06-29T14:59:12.198Z,7.30
2018-06-29T15:01:39.631Z,7.53
2018-06-29T15:04:07.041Z,6.90
2018-06-29T15:06:34.458Z,6.90
2018-06-29T15:09:01.963Z,7.53
2018-06-29T15:11:29.456Z,7.90
2018-06-29T15:13:56.822Z,8.50
2018-06-29T15:16:24.259Z,7.90
2018-06-29T15:18:51.717Z,7.90
2018-06-29T15:21:19.186Z,8.90
2018-06-29T15:23:46.534Z,7.40
2018-06-29T15:26:13.890Z,7.87
2018-06-29T15:28:41.399Z,7.70
2018-06-29T15:31:08.917Z,7.53
2018-06-29T15:33:36.401Z,7.37
2018-06-29T15:36:03.800Z,8.33
2018-06-29T15:38:31.173Z,8.00
2018-06-29T15:40:58.605Z,8.20
2018-06-29T15:43:25.980Z,7.93
2018-06-29T15:45:53.377Z,8.37
2018-06-29T15:48:20.770Z,7.77
2018-06-29T15:50:48.162Z,9.03
2018-06-29T15:53:15.541Z,10.00
2018-06-29T15:55:43.065Z,9.57
2018-06-29T15:58:10.460Z,10.00
2018-06-29T16:00:37.808Z,9.87
2018-06-29T16:03:05.678Z,10.10
2018-06-29T16:05:33.085Z,9.83
2018-06-29T16:08:00.501Z,9.90
2018-06-29T16:10:27.926Z,10.00
2018-06-29T16:12:55.297Z,9.83
2018-06-29T16:15:22.701Z,10.10
2018-06-29T16:17:50.137Z,9.13
2018-06-29T16:20:17.568Z,8.50
2018-06-29T16:22:44.998Z,9.10
2018-06-29T16:25:12.381Z,10.30
2018-06-29T16:27:39.801Z,10.37
2018-06-29T16:30:07.737Z,9.80
2018-06-29T16:32:35.277Z,9.90
2018-06-29T16:35:02.856Z,10.20
2018-06-29T16:37:30.340Z,8.80
2018-06-29T16:39:57.765Z,9.57
2018-06-29T16:42:25.247Z,9.97
2018-06-29T16:44:52.714Z,8.13
2018-06-29T16:47:20.150Z,9.23
2018-06-29T16:49:47.739Z,10.00
2018-06-29T16:52:15.407Z,9.17
2018-06-29T16:54:42.789Z,8.50
2018-06-29T16:57:10.285Z,8.77
2018-06-29T16:59:37.733Z,8.03
2018-06-29T17:02:05.258Z,9.40
2018-06-29T17:04:32.697Z,8.83
2018-06-29T17:07:00.074Z,10.07
2018-06-29T17:09:27.505Z,9.00
2018-06-29T17:11:54.863Z,9.97
2018-06-29T17:14:22.523Z,9.57
2018-06-29T17:16:50.053Z,9.60
2018-06-29T17:19:17.444Z,9.27
2018-06-29T17:21:44.911Z,9.90
2018-06-29T17:24:13.037Z,9.80
2018-06-29T17:26:40.435Z,10.40
2018-06-29T17:29:08.428Z,10.93
2018-06-29T17:31:36.121Z,10.30
2018-06-29T17:34:03.552Z,10.97
2018-06-29T17:36:30.863Z,9.77
2018-06-29T17:38:58.286Z,9.63
2018-06-29T17:41:25.641Z,9.93
2018-06-29T17:43:53.104Z,13.03
2018-06-29T17:46:20.548Z,13.33
2018-06-29T17:48:48.013Z,12.73
2018-06-29T17:51:15.518Z,16.60
2018-06-29T17:53:42.965Z,12.60
2018-06-29T17:56:10.498Z,26.77
2018-06-29T17:58:37.942Z,22.50
2018-06-29T18:01:05.471Z,23.33
2018-06-29T18:03:32.985Z,24.03
2018-06-29T18:06:00.448Z,12.23
2018-06-29T18:08:28.014Z,11.63
2018-06-29T18:10:55.526Z,11.80
2018-06-29T18:13:23.068Z,11.57
2018-06-29T18:15:50.442Z,11.80
2018-06-29T18:18:17.816Z,11.80
2018-06-29T18:20:45.360Z,12.33
2018-06-29T18:23:12.856Z,11.70
2018-06-29T18:25:40.385Z,12.03
2018-06-29T18:28:07.930Z,13.63
2018-06-29T18:30:35.632Z,14.60
2018-06-29T18:33:03.109Z,16.33
2018-06-29T18:35:31.039Z,14.67
2018-06-29T18:37:59.235Z,13.93
2018-06-29T18:40:26.846Z,13.30
2018-06-29T18:42:54.435Z,14.17
2018-06-29T18:45:21.934Z,13.23
2018-06-29T18:47:49.454Z,14.43
2018-06-29T18:50:16.985Z,17.30
2018-06-29T18:52:44.517Z,15.33
2018-06-29T18:55:11.942Z,18.40
2018-06-29T18:57:39.397Z,33.57
2018-06-29T19:00:06.859Z,22.00
2018-06-29T19:02:34.321Z,26.30
2018-06-29T19:05:01.699Z,18.33
2018-06-29T19:07:29.157Z,18.97
2018-06-29T19:09:56.512Z,17.00
2018-06-29T19:12:23.939Z,15.20
2018-06-29T19:14:51.365Z,14.33
2018-06-29T19:17:18.821Z,16.67
2018-06-29T19:19:46.425Z,16.83
2018-06-29T19:22:13.798Z,22.57
2018-06-29T19:24:41.363Z,22.77
2018-06-29T19:27:08.711Z,18.93
2018-06-29T19:29:36.164Z,20.07
2018-06-29T19:32:03.852Z,16.70
2018-06-29T19:34:32.443Z,14.33
2018-06-29T19:36:59.849Z,14.33
2018-06-29T19:39:27.192Z,13.80
2018-06-29T19:41:54.601Z,14.17
2018-06-29T19:44:21.991Z,15.03
2018-06-29T19:46:49.433Z,15.87
2018-06-29T19:49:16.926Z,16.17
2018-06-29T19:51:44.311Z,31.90
2018-06-29T19:54:11.685Z,29.67
2018-06-29T19:56:39.114Z,15.60
2018-06-29T19:59:06.508Z,15.20
2018-06-29T20:01:33.906Z,16.17
2018-06-29T20:04:01.291Z,16.50
2018-06-29T20:06:28.842Z,15.30
2018-06-29T20:08:56.445Z,16.00
2018-06-29T20:11:23.989Z,15.97
2018-06-29T20:13:51.527Z,16.20
2018-06-29T20:16:19.003Z,16.37
2018-06-29T20:18:46.379Z,16.57
2018-06-29T20:21:13.869Z,17.90
2018-06-29T20:23:41.708Z,16.93
2018-06-29T20:26:09.110Z,15.80
2018-06-29T20:28:36.531Z,16.47
2018-06-29T20:31:03.921Z,17.57
2018-06-29T20:33:31.435Z,17.87
2018-06-29T20:35:58.891Z,18.53
2018-06-29T20:38:26.458Z,19.07
2018-06-29T20:40:54.477Z,18.57
2018-06-29T20:43:21.981Z,18.40
2018-06-29T20:45:49.389Z,16.63
2018-06-29T20:48:17.250Z,18.83
2018-06-29T20:50:44.759Z,18.23
2018-06-29T20:53:12.370Z,17.80
2018-06-29T20:55:40.603Z,18.30
2018-06-29T20:58:08.246Z,18.43
2018-06-29T21:00:35.811Z,19.00
2018-06-29T21:03:03.372Z,18.73
2018-06-29T21:05:31.054Z,18.40
2018-06-29T21:07:59.024Z,19.07
2018-06-29T21:10:26.623Z,17.93
2018-06-29T21:12:54.225Z,17.30
2018-06-29T21:15:21.672Z,18.20
2018-06-29T21:17:49.161Z,17.53
2018-06-29T21:20:16.590Z,18.10
2018-06-29T21:22:44.109Z,16.87
2018-06-29T21:25:11.721Z,16.80
2018-06-29T21:27:39.098Z,15.67
2018-06-29T21:30:07.070Z,16.70
2018-06-29T21:32:34.526Z,14.73
2018-06-29T21:35:01.973Z,12.90
2018-06-29T21:37:29.386Z,11.00
2018-06-29T21:39:56.757Z,9.40
2018-06-29T21:42:24.137Z,7.83
2018-06-29T21:44:51.580Z,7.37
2018-06-29T21:47:19.089Z,6.47
2018-06-29T21:49:46.621Z,6.17
2018-06-29T21:52:14.083Z,5.00
2018-06-29T21:54:41.527Z,4.93
2018-06-29T21:57:08.884Z,4.10
2018-06-29T21:59:36.341Z,3.77
2018-06-29T22:02:03.792Z,3.77
2018-06-29T22:04:31.312Z,2.83
2018-06-29T22:06:58.726Z,2.47
2018-06-29T22:09:26.093Z,2.23
2018-06-29T22:11:53.529Z,1.70
2018-06-29T22:14:20.954Z,1.60
2018-06-29T22:16:48.557Z,1.47
2018-06-29T22:19:15.970Z,1.70
2018-06-29T22:21:43.370Z,1.67
2018-06-29T22:24:10.869Z,1.43
2018-06-29T22:26:38.346Z,1.13
2018-06-29T22:29:05.901Z,1.80
2018-06-29T22:31:33.334Z,1.10
2018-06-29T22:34:02.018Z,1.20
2018-06-29T22:36:29.399Z,1.37
2018-06-29T22:38:56.805Z,0.90
2018-06-29T22:41:24.172Z,1.10
2018-06-29T22:43:52.851Z,1.20
2018-06-29T22:46:20.492Z,1.00
2018-06-29T22:48:47.975Z,1.20
2018-06-29T22:51:15.380Z,1.30
2018-06-29T22:53:42.793Z,1.10
2018-06-29T22:56:10.728Z,0.93
2018-06-29T22:58:38.558Z,1.10
2018-06-29T23:01:06.279Z,0.80
2018-06-29T23:03:39.415Z,0.93
2018-06-29T23:06:07.873Z,1.00
2018-06-29T23:08:36.048Z,1.07
2018-06-29T23:11:04.166Z,1.17
2018-06-29T23:13:31.914Z,1.10
2018-06-29T23:16:00.800Z,0.93
2018-06-29T23:18:28.243Z,1.10
2018-06-29T23:20:55.637Z,0.80
2018-06-29T23:23:25.345Z,1.13
2018-06-29T23:25:53.940Z,1.10
2018-06-29T23:28:22.174Z,0.70
2018-06-29T23:30:49.596Z,0.83
2018-06-29T23:33:17.694Z,0.90
2018-06-29T23:35:45.266Z,0.97
2018-06-29T23:38:12.857Z,0.97
2018-06-29T23:40:40.374Z,0.90
2018-06-29T23:43:08.738Z,1.00
2018-06-29T23:45:36.321Z,0.93
2018-06-29T23:48:03.918Z,1.00
2018-06-29T23:50:31.406Z,0.90
2018-06-29T23:52:58.821Z,0.77
2018-06-29T23:55:26.283Z,0.80
2018-06-29T23:57:54.050Z,0.90
